sensor_id;sensor_type;location;lat;lon;timestamp;pressure;altitude;pressure_sealevel;temperature;humidity
53715;BME280;39608;55.630;37.864;2023-05-03T02:20:19;99620.34;;;9.45;42.03
53715;BME280;39608;55.630;37.864;2023-05-03T02:25:21;99639.72;;;9.57;41.91
53715;BME280;39608;55.630;37.864;2023-05-03T02:30:23;99602.50;;;9.38;41.88
53715;BME280;39608;55.630;37.864;2023-05-03T02:35:27;99633.13;;;9.68;41.92
53715;BME280;39608;55.630;37.864;2023-05-03T02:40:29;99621.19;;;9.69;41.60
53715;BME280;39608;55.630;37.864;2023-05-03T02:45:31;99623.84;;;9.74;41.80
53715;BME280;39608;55.630;37.864;2023-05-03T02:50:34;99639.59;;;9.97;41.51
53715;BME280;39608;55.630;37.864;2023-05-03T02:55:39;99630.88;;;10.00;41.55
53715;BME280;39608;55.630;37.864;2023-05-03T03:00:41;99637.06;;;10.05;41.75
53715;BME280;39608;55.630;37.864;2023-05-03T03:05:45;99636.13;;;10.15;41.59
53715;BME280;39608;55.630;37.864;2023-05-03T03:10:47;99646.09;;;10.20;41.66
53715;BME280;39608;55.630;37.864;2023-05-03T03:15:49;99631.47;;;10.21;42.14
53715;BME280;39608;55.630;37.864;2023-05-03T03:20:53;99645.41;;;10.33;41.75
53715;BME280;39608;55.630;37.864;2023-05-03T03:25:55;99643.19;;;10.40;41.54
53715;BME280;39608;55.630;37.864;2023-05-03T03:30:57;99626.56;;;10.47;41.62
53715;BME280;39608;55.630;37.864;2023-05-03T03:36:01;99645.00;;;10.69;41.05
53715;BME280;39608;55.630;37.864;2023-05-03T03:41:03;99640.94;;;10.67;41.13
53715;BME280;39608;55.630;37.864;2023-05-03T03:46:05;99651.94;;;10.75;41.20
53715;BME280;39608;55.630;37.864;2023-05-03T03:51:08;99630.09;;;10.67;41.35
53715;BME280;39608;55.630;37.864;2023-05-03T03:56:11;99641.09;;;10.75;41.07
53715;BME280;39608;55.630;37.864;2023-05-03T04:01:13;99652.69;;;10.81;41.13
53715;BME280;39608;55.630;37.864;2023-05-03T04:06:16;99655.94;;;10.83;41.34
53715;BME280;39608;55.630;37.864;2023-05-03T04:11:18;99656.72;;;10.84;41.64
53715;BME280;39608;55.630;37.864;2023-05-03T04:16:21;99648.09;;;10.82;41.10
53715;BME280;39608;55.630;37.864;2023-05-03T04:21:24;99655.03;;;10.88;41.41
53715;BME280;39608;55.630;37.864;2023-05-03T04:26:27;99669.94;;;10.90;40.92
53715;BME280;39608;55.630;37.864;2023-05-03T04:31:30;99644.19;;;10.88;41.31
53715;BME280;39608;55.630;37.864;2023-05-03T04:36:33;99655.34;;;11.05;41.28
53715;BME280;39608;55.630;37.864;2023-05-03T04:41:35;99662.59;;;11.10;41.77
53715;BME280;39608;55.630;37.864;2023-05-03T04:46:37;99655.47;;;11.14;41.60
53715;BME280;39608;55.630;37.864;2023-05-03T04:51:41;99656.72;;;11.03;42.44
53715;BME280;39608;55.630;37.864;2023-05-03T04:56:43;99685.13;;;10.91;43.05
53715;BME280;39608;55.630;37.864;2023-05-03T05:01:45;99684.00;;;10.73;43.48
53715;BME280;39608;55.630;37.864;2023-05-03T05:06:49;99671.13;;;10.60;43.55
53715;BME280;39608;55.630;37.864;2023-05-03T05:11:52;99690.34;;;10.64;44.02
53715;BME280;39608;55.630;37.864;2023-05-03T05:16:54;99694.97;;;10.63;43.94
53715;BME280;39608;55.630;37.864;2023-05-03T05:21:57;99691.69;;;10.66;45.23
53715;BME280;39608;55.630;37.864;2023-05-03T05:26:59;99693.41;;;10.57;45.20
53715;BME280;39608;55.630;37.864;2023-05-03T05:32:02;99696.00;;;10.67;45.33
53715;BME280;39608;55.630;37.864;2023-05-03T05:37:06;99693.38;;;10.81;45.25
53715;BME280;39608;55.630;37.864;2023-05-03T05:42:08;99701.16;;;10.88;45.23
53715;BME280;39608;55.630;37.864;2023-05-03T05:47:10;99700.50;;;10.96;45.58
53715;BME280;39608;55.630;37.864;2023-05-03T05:52:13;99701.69;;;11.09;46.05
53715;BME280;39608;55.630;37.864;2023-05-03T05:57:15;99701.25;;;11.21;45.57
53715;BME280;39608;55.630;37.864;2023-05-03T06:02:18;99691.31;;;11.30;45.42
53715;BME280;39608;55.630;37.864;2023-05-03T06:07:24;99692.22;;;11.44;45.29
53715;BME280;39608;55.630;37.864;2023-05-03T06:12:26;99711.09;;;12.02;44.94
53715;BME280;39608;55.630;37.864;2023-05-03T06:17:28;99707.53;;;12.48;44.12
53715;BME280;39608;55.630;37.864;2023-05-03T06:22:32;99702.47;;;12.69;43.93
53715;BME280;39608;55.630;37.864;2023-05-03T06:27:34;99707.41;;;12.67;43.71
53715;BME280;39608;55.630;37.864;2023-05-03T06:32:37;99702.66;;;12.59;44.03
53715;BME280;39608;55.630;37.864;2023-05-03T06:37:41;99721.28;;;12.79;43.86
53715;BME280;39608;55.630;37.864;2023-05-03T06:42:43;99695.31;;;13.10;42.46
53715;BME280;39608;55.630;37.864;2023-05-03T06:47:45;99716.59;;;13.44;42.02
53715;BME280;39608;55.630;37.864;2023-05-03T06:52:51;99710.63;;;13.88;41.85
53715;BME280;39608;55.630;37.864;2023-05-03T06:57:53;99707.34;;;14.71;40.45
53715;BME280;39608;55.630;37.864;2023-05-03T07:02:55;99709.63;;;14.95;39.77
53715;BME280;39608;55.630;37.864;2023-05-03T07:07:58;99705.19;;;14.59;40.18
53715;BME280;39608;55.630;37.864;2023-05-03T07:13:00;99711.59;;;14.54;40.08
53715;BME280;39608;55.630;37.864;2023-05-03T07:18:02;99724.69;;;14.44;40.32
53715;BME280;39608;55.630;37.864;2023-05-03T07:23:06;99722.44;;;14.37;40.53
53715;BME280;39608;55.630;37.864;2023-05-03T07:28:08;99729.03;;;14.36;40.23
53715;BME280;39608;55.630;37.864;2023-05-03T07:33:10;99723.22;;;14.29;40.49
53715;BME280;39608;55.630;37.864;2023-05-03T07:38:13;99726.63;;;14.34;40.61
53715;BME280;39608;55.630;37.864;2023-05-03T07:43:16;99724.53;;;14.40;40.21
53715;BME280;39608;55.630;37.864;2023-05-03T07:48:19;99736.88;;;14.37;40.21
53715;BME280;39608;55.630;37.864;2023-05-03T07:53:23;99728.00;;;14.23;40.14
53715;BME280;39608;55.630;37.864;2023-05-03T07:58:25;99747.53;;;14.16;40.51
53715;BME280;39608;55.630;37.864;2023-05-03T08:03:27;99748.31;;;14.08;40.38
53715;BME280;39608;55.630;37.864;2023-05-03T08:08:30;99772.09;;;14.16;40.70
53715;BME280;39608;55.630;37.864;2023-05-03T08:13:35;99773.66;;;14.40;40.53
53715;BME280;39608;55.630;37.864;2023-05-03T08:18:37;99782.97;;;14.70;40.32
53715;BME280;39608;55.630;37.864;2023-05-03T08:23:40;99772.06;;;14.79;40.16
53715;BME280;39608;55.630;37.864;2023-05-03T08:28:42;99789.22;;;14.71;40.46
53715;BME280;39608;55.630;37.864;2023-05-03T08:33:44;99797.66;;;14.29;41.03
53715;BME280;39608;55.630;37.864;2023-05-03T08:38:48;99824.66;;;13.85;41.72
53715;BME280;39608;55.630;37.864;2023-05-03T08:43:52;99802.78;;;13.40;42.55
53715;BME280;39608;55.630;37.864;2023-05-03T08:48:54;99821.75;;;13.31;44.02
53715;BME280;39608;55.630;37.864;2023-05-03T08:53:58;99817.56;;;12.97;46.06
53715;BME280;39608;55.630;37.864;2023-05-03T08:59:00;99794.88;;;12.74;46.43
53715;BME280;39608;55.630;37.864;2023-05-03T09:04:09;99806.47;;;12.80;47.23
53715;BME280;39608;55.630;37.864;2023-05-03T09:09:12;99811.72;;;12.90;47.08
53715;BME280;39608;55.630;37.864;2023-05-03T09:14:17;99821.28;;;12.88;48.01
53715;BME280;39608;55.630;37.864;2023-05-03T09:19:20;99830.66;;;12.68;48.49
53715;BME280;39608;55.630;37.864;2023-05-03T09:24:25;99827.00;;;12.58;49.04
53715;BME280;39608;55.630;37.864;2023-05-03T09:29:30;99830.66;;;12.54;49.86
53715;BME280;39608;55.630;37.864;2023-05-03T09:34:34;99830.69;;;12.35;50.00
53715;BME280;39608;55.630;37.864;2023-05-03T09:39:39;99836.94;;;12.35;50.58
53715;BME280;39608;55.630;37.864;2023-05-03T09:44:45;99827.03;;;12.25;49.91
53715;BME280;39608;55.630;37.864;2023-05-03T09:49:51;99820.69;;;12.16;51.44
53715;BME280;39608;55.630;37.864;2023-05-03T09:54:55;99828.00;;;12.15;52.10
53715;BME280;39608;55.630;37.864;2023-05-03T09:59:57;99816.72;;;12.08;51.92
53715;BME280;39608;55.630;37.864;2023-05-03T10:04:59;99842.47;;;12.30;52.15
53715;BME280;39608;55.630;37.864;2023-05-03T10:10:04;99835.47;;;12.57;51.94
53715;BME280;39608;55.630;37.864;2023-05-03T10:15:07;99857.69;;;13.33;51.14
53715;BME280;39608;55.630;37.864;2023-05-03T10:20:15;99842.63;;;14.32;49.84
53715;BME280;39608;55.630;37.864;2023-05-03T10:25:23;99837.31;;;14.58;49.36
53715;BME280;39608;55.630;37.864;2023-05-03T10:30:29;99831.31;;;14.79;48.89
53715;BME280;39608;55.630;37.864;2023-05-03T10:35:32;99834.16;;;15.05;48.47
53715;BME280;39608;55.630;37.864;2023-05-03T10:40:42;99826.13;;;15.00;48.34
53715;BME280;39608;55.630;37.864;2023-05-03T10:45:44;99829.97;;;14.99;48.73
53715;BME280;39608;55.630;37.864;2023-05-03T10:50:46;99829.81;;;15.04;48.80
53715;BME280;39608;55.630;37.864;2023-05-03T10:56:01;99839.94;;;15.03;48.76
53715;BME280;39608;55.630;37.864;2023-05-03T11:01:06;99830.88;;;14.85;48.53
53715;BME280;39608;55.630;37.864;2023-05-03T11:06:09;99835.50;;;15.25;48.19
53715;BME280;39608;55.630;37.864;2023-05-03T11:11:28;99837.63;;;16.24;45.86
53715;BME280;39608;55.630;37.864;2023-05-03T11:16:30;99819.59;;;16.23;45.43
53715;BME280;39608;55.630;37.864;2023-05-03T11:21:34;99813.78;;;16.42;44.55
53715;BME280;39608;55.630;37.864;2023-05-03T11:26:38;99815.06;;;17.14;44.16
53715;BME280;39608;55.630;37.864;2023-05-03T11:31:40;99826.59;;;18.46;41.45
53715;BME280;39608;55.630;37.864;2023-05-03T11:36:43;99821.00;;;19.41;39.21
53715;BME280;39608;55.630;37.864;2023-05-03T11:42:02;99813.91;;;19.81;39.34
53715;BME280;39608;55.630;37.864;2023-05-03T11:47:05;99826.78;;;20.33;36.20
53715;BME280;39608;55.630;37.864;2023-05-03T11:52:07;99823.19;;;20.17;35.78
53715;BME280;39608;55.630;37.864;2023-05-03T11:57:12;99813.13;;;19.68;36.65
53715;BME280;39608;55.630;37.864;2023-05-03T12:02:14;99813.50;;;19.01;36.55
53715;BME280;39608;55.630;37.864;2023-05-03T12:07:16;99814.75;;;19.16;36.48
53715;BME280;39608;55.630;37.864;2023-05-03T12:12:20;99820.19;;;19.94;35.29
53715;BME280;39608;55.630;37.864;2023-05-03T12:17:35;99829.94;;;20.96;34.37
53715;BME280;39608;55.630;37.864;2023-05-03T12:22:38;99820.06;;;21.30;32.65
53715;BME280;39608;55.630;37.864;2023-05-03T12:27:41;99819.31;;;21.49;32.06
53715;BME280;39608;55.630;37.864;2023-05-03T12:32:43;99809.81;;;20.95;33.25
53715;BME280;39608;55.630;37.864;2023-05-03T12:37:46;99826.19;;;19.83;34.27
53715;BME280;39608;55.630;37.864;2023-05-03T12:42:50;99824.94;;;18.91;35.62
53715;BME280;39608;55.630;37.864;2023-05-03T12:47:52;99833.81;;;18.05;36.63
53715;BME280;39608;55.630;37.864;2023-05-03T12:52:54;99815.44;;;17.54;37.93
53715;BME280;39608;55.630;37.864;2023-05-03T12:57:57;99821.72;;;18.18;37.75
53715;BME280;39608;55.630;37.864;2023-05-03T13:02:59;99815.25;;;19.99;34.94
53715;BME280;39608;55.630;37.864;2023-05-03T13:08:01;99819.31;;;19.37;35.16
53715;BME280;39608;55.630;37.864;2023-05-03T13:13:05;99825.78;;;18.00;37.42
53715;BME280;39608;55.630;37.864;2023-05-03T13:18:08;99842.78;;;17.21;38.86
53715;BME280;39608;55.630;37.864;2023-05-03T13:23:10;99837.44;;;17.24;39.33
53715;BME280;39608;55.630;37.864;2023-05-03T13:28:14;99825.50;;;17.50;38.76
53715;BME280;39608;55.630;37.864;2023-05-03T13:33:19;99840.28;;;17.07;39.58
53715;BME280;39608;55.630;37.864;2023-05-03T13:38:22;99817.56;;;16.68;40.27
53715;BME280;39608;55.630;37.864;2023-05-03T13:43:25;99828.09;;;16.48;40.82
53715;BME280;39608;55.630;37.864;2023-05-03T13:48:27;99827.47;;;16.34;40.99
53715;BME280;39608;55.630;37.864;2023-05-03T13:53:30;99827.50;;;16.72;40.70
53715;BME280;39608;55.630;37.864;2023-05-03T13:58:34;99823.41;;;17.89;38.76
53715;BME280;39608;55.630;37.864;2023-05-03T14:03:37;99826.41;;;17.33;39.33
53715;BME280;39608;55.630;37.864;2023-05-03T14:08:40;99831.88;;;16.65;40.81
53715;BME280;39608;55.630;37.864;2023-05-03T14:13:43;99823.31;;;16.28;41.78
53715;BME280;39608;55.630;37.864;2023-05-03T14:18:46;99832.81;;;16.13;42.14
53715;BME280;39608;55.630;37.864;2023-05-03T14:23:50;99825.25;;;16.18;42.11
53715;BME280;39608;55.630;37.864;2023-05-03T14:28:54;99820.78;;;16.05;42.54
53715;BME280;39608;55.630;37.864;2023-05-03T14:33:56;99818.66;;;16.19;42.33
53715;BME280;39608;55.630;37.864;2023-05-03T14:38:58;99832.31;;;16.37;42.11
53715;BME280;39608;55.630;37.864;2023-05-03T14:44:02;99817.81;;;16.28;42.59
53715;BME280;39608;55.630;37.864;2023-05-03T14:49:04;99806.91;;;16.19;43.04
53715;BME280;39608;55.630;37.864;2023-05-03T14:54:06;99807.56;;;15.98;43.37
53715;BME280;39608;55.630;37.864;2023-05-03T14:59:10;99824.47;;;15.91;43.45
53715;BME280;39608;55.630;37.864;2023-05-03T15:04:12;99824.47;;;15.74;43.94
53715;BME280;39608;55.630;37.864;2023-05-03T15:09:14;99827.22;;;15.83;44.04
53715;BME280;39608;55.630;37.864;2023-05-03T15:14:18;99833.47;;;15.83;44.00
53715;BME280;39608;55.630;37.864;2023-05-03T15:19:20;99812.53;;;15.52;44.63
53715;BME280;39608;55.630;37.864;2023-05-03T15:24:22;99819.75;;;15.39;45.48
53715;BME280;39608;55.630;37.864;2023-05-03T15:29:27;99834.09;;;15.45;45.10
53715;BME280;39608;55.630;37.864;2023-05-03T15:34:29;99842.09;;;15.33;45.37
53715;BME280;39608;55.630;37.864;2023-05-03T15:39:32;99835.00;;;15.32;45.67
53715;BME280;39608;55.630;37.864;2023-05-03T15:44:36;99841.94;;;15.29;46.12
53715;BME280;39608;55.630;37.864;2023-05-03T15:49:38;99851.38;;;15.14;47.07
53715;BME280;39608;55.630;37.864;2023-05-03T15:54:40;99848.97;;;15.13;46.62
53715;BME280;39608;55.630;37.864;2023-05-03T15:59:43;99848.66;;;15.14;46.63
53715;BME280;39608;55.630;37.864;2023-05-03T16:04:46;99849.28;;;15.11;46.62
53715;BME280;39608;55.630;37.864;2023-05-03T16:09:50;99848.56;;;14.97;46.98
53715;BME280;39608;55.630;37.864;2023-05-03T16:14:54;99865.47;;;14.99;46.90
53715;BME280;39608;55.630;37.864;2023-05-03T16:19:56;99866.25;;;14.99;47.14
53715;BME280;39608;55.630;37.864;2023-05-03T16:24:58;99873.78;;;14.94;47.63
53715;BME280;39608;55.630;37.864;2023-05-03T16:30:01;99877.16;;;14.91;47.75
53715;BME280;39608;55.630;37.864;2023-05-03T16:35:05;99874.53;;;14.77;48.68
53715;BME280;39608;55.630;37.864;2023-05-03T16:40:08;99885.56;;;14.49;50.84
53715;BME280;39608;55.630;37.864;2023-05-03T16:45:12;99891.16;;;14.21;51.52
53715;BME280;39608;55.630;37.864;2023-05-03T16:50:16;99918.94;;;14.00;51.51
53715;BME280;39608;55.630;37.864;2023-05-03T16:55:20;99912.38;;;13.88;51.63
53715;BME280;39608;55.630;37.864;2023-05-03T17:00:24;99925.63;;;13.80;51.65
53715;BME280;39608;55.630;37.864;2023-05-03T17:05:26;99924.31;;;13.78;51.88
53715;BME280;39608;55.630;37.864;2023-05-03T17:10:34;99921.44;;;13.74;52.16
53715;BME280;39608;55.630;37.864;2023-05-03T17:15:39;99931.81;;;13.72;51.89
53715;BME280;39608;55.630;37.864;2023-05-03T17:20:41;99936.47;;;13.58;52.34
53715;BME280;39608;55.630;37.864;2023-05-03T17:25:43;99957.97;;;13.45;52.68
53715;BME280;39608;55.630;37.864;2023-05-03T17:30:46;99961.28;;;13.28;53.66
53715;BME280;39608;55.630;37.864;2023-05-03T17:35:49;99959.84;;;13.03;54.42
53715;BME280;39608;55.630;37.864;2023-05-03T17:40:51;99965.94;;;12.81;55.35
53715;BME280;39608;55.630;37.864;2023-05-03T17:45:54;99961.56;;;12.66;56.36
53715;BME280;39608;55.630;37.864;2023-05-03T17:50:57;99952.78;;;12.55;56.56
53715;BME280;39608;55.630;37.864;2023-05-03T17:55:59;99954.34;;;12.42;57.10
53715;BME280;39608;55.630;37.864;2023-05-03T18:01:02;99965.06;;;12.33;57.74
53715;BME280;39608;55.630;37.864;2023-05-03T18:06:08;99954.03;;;12.25;57.81
53715;BME280;39608;55.630;37.864;2023-05-03T18:11:10;99962.28;;;12.20;57.78
53715;BME280;39608;55.630;37.864;2023-05-03T18:16:26;99963.09;;;12.20;56.13
53715;BME280;39608;55.630;37.864;2023-05-03T18:21:32;99964.34;;;12.09;57.29
53715;BME280;39608;55.630;37.864;2023-05-03T18:26:38;99944.84;;;11.82;57.37
53715;BME280;39608;55.630;37.864;2023-05-03T18:31:45;99975.72;;;12.11;57.27
53715;BME280;39608;55.630;37.864;2023-05-03T18:36:56;99932.78;;;11.70;57.34
53715;BME280;39608;55.630;37.864;2023-05-03T18:42:01;99962.09;;;11.92;57.82
53715;BME280;39608;55.630;37.864;2023-05-03T18:47:04;99927.84;;;11.72;57.91
53715;BME280;39608;55.630;37.864;2023-05-03T18:52:12;99974.75;;;12.02;57.62
53715;BME280;39608;55.630;37.864;2023-05-03T18:57:15;99977.28;;;11.98;56.93
53715;BME280;39608;55.630;37.864;2023-05-03T19:02:20;99971.13;;;11.87;56.12
53715;BME280;39608;55.630;37.864;2023-05-03T19:07:22;99917.31;;;11.46;53.32
53715;BME280;39608;55.630;37.864;2023-05-03T19:12:24;99922.50;;;11.42;52.91
53715;BME280;39608;55.630;37.864;2023-05-03T19:17:28;100002.25;;;11.76;52.81
53715;BME280;39608;55.630;37.864;2023-05-03T19:22:31;99947.28;;;11.36;51.67
53715;BME280;39608;55.630;37.864;2023-05-03T19:27:37;99967.94;;;11.37;52.19
53715;BME280;39608;55.630;37.864;2023-05-03T19:32:42;99959.69;;;11.18;51.83
53715;BME280;39608;55.630;37.864;2023-05-03T19:37:46;99951.63;;;11.12;51.46
53715;BME280;39608;55.630;37.864;2023-05-03T19:42:49;99992.19;;;11.28;51.55
53715;BME280;39608;55.630;37.864;2023-05-03T19:47:54;99989.41;;;11.33;51.04
53715;BME280;39608;55.630;37.864;2023-05-03T19:52:57;100002.19;;;11.33;51.26
53715;BME280;39608;55.630;37.864;2023-05-03T19:57:59;100024.91;;;11.42;51.10
53715;BME280;39608;55.630;37.864;2023-05-03T20:03:06;100001.19;;;11.23;50.83
53715;BME280;39608;55.630;37.864;2023-05-03T20:08:08;100010.91;;;11.29;50.40
53715;BME280;39608;55.630;37.864;2023-05-03T20:13:11;100020.97;;;11.29;50.92
53715;BME280;39608;55.630;37.864;2023-05-03T20:18:15;99983.19;;;11.03;51.02
53715;BME280;39608;55.630;37.864;2023-05-03T20:23:17;100034.25;;;11.30;50.99
53715;BME280;39608;55.630;37.864;2023-05-03T20:28:21;100038.09;;;11.24;50.67
53715;BME280;39608;55.630;37.864;2023-05-03T20:33:25;100043.59;;;11.19;50.93
53715;BME280;39608;55.630;37.864;2023-05-03T20:38:28;100058.75;;;11.25;51.23
53715;BME280;39608;55.630;37.864;2023-05-03T20:43:30;100050.19;;;11.08;50.56
53715;BME280;39608;55.630;37.864;2023-05-03T20:48:36;100075.13;;;11.15;50.68
53715;BME280;39608;55.630;37.864;2023-05-03T20:53:39;100076.56;;;11.02;50.88
53715;BME280;39608;55.630;37.864;2023-05-03T20:58:41;100069.38;;;10.87;50.67
53715;BME280;39608;55.630;37.864;2023-05-03T21:03:44;100090.75;;;10.94;50.60
53715;BME280;39608;55.630;37.864;2023-05-03T21:08:47;100037.31;;;10.55;50.74
53715;BME280;39608;55.630;37.864;2023-05-03T21:13:49;100081.06;;;10.83;50.15
53715;BME280;39608;55.630;37.864;2023-05-03T21:18:53;100073.78;;;10.73;50.24
53715;BME280;39608;55.630;37.864;2023-05-03T21:23:55;100081.41;;;10.76;49.95
53715;BME280;39608;55.630;37.864;2023-05-03T21:28:57;100082.22;;;10.71;49.24
53715;BME280;39608;55.630;37.864;2023-05-03T21:34:01;100088.47;;;10.72;48.63
53715;BME280;39608;55.630;37.864;2023-05-03T21:39:04;100101.03;;;10.57;48.76
53715;BME280;39608;55.630;37.864;2023-05-03T21:44:06;100104.00;;;10.56;48.20
53715;BME280;39608;55.630;37.864;2023-05-03T21:49:10;100109.22;;;10.52;48.29
53715;BME280;39608;55.630;37.864;2023-05-03T21:54:12;100095.19;;;10.35;48.38
53715;BME280;39608;55.630;37.864;2023-05-03T21:59:15;100095.22;;;10.24;48.15
53715;BME280;39608;55.630;37.864;2023-05-03T22:04:19;100093.88;;;10.17;47.97
53715;BME280;39608;55.630;37.864;2023-05-03T22:09:21;100071.75;;;9.99;48.28
53715;BME280;39608;55.630;37.864;2023-05-03T22:14:24;100081.78;;;9.88;48.26
53715;BME280;39608;55.630;37.864;2023-05-03T22:19:28;100110.19;;;10.01;48.46
53715;BME280;39608;55.630;37.864;2023-05-03T22:24:30;100105.34;;;9.93;48.06
53715;BME280;39608;55.630;37.864;2023-05-03T22:29:33;100109.97;;;9.92;48.01
53715;BME280;39608;55.630;37.864;2023-05-03T22:34:36;100106.97;;;9.89;47.08
53715;BME280;39608;55.630;37.864;2023-05-03T22:39:38;100109.97;;;9.87;47.20
53715;BME280;39608;55.630;37.864;2023-05-03T22:44:41;100104.81;;;9.86;46.71
53715;BME280;39608;55.630;37.864;2023-05-03T22:49:44;100110.78;;;9.83;46.74
53715;BME280;39608;55.630;37.864;2023-05-03T22:54:47;100112.94;;;9.81;46.37
53715;BME280;39608;55.630;37.864;2023-05-03T22:59:49;100117.56;;;9.85;46.05
53715;BME280;39608;55.630;37.864;2023-05-03T23:04:52;100113.78;;;9.76;46.13
53715;BME280;39608;55.630;37.864;2023-05-03T23:09:59;100106.22;;;9.73;45.94
53715;BME280;39608;55.630;37.864;2023-05-03T23:15:03;100118.69;;;9.74;45.42
53715;BME280;39608;55.630;37.864;2023-05-03T23:20:10;100123.53;;;9.77;45.51
53715;BME280;39608;55.630;37.864;2023-05-03T23:25:12;100121.09;;;9.65;44.88
53715;BME280;39608;55.630;37.864;2023-05-03T23:30:16;100127.63;;;9.64;45.12
53715;BME280;39608;55.630;37.864;2023-05-03T23:35:19;100103.53;;;9.52;44.78
53715;BME280;39608;55.630;37.864;2023-05-03T23:40:22;100128.19;;;9.56;44.57
53715;BME280;39608;55.630;37.864;2023-05-03T23:45:24;100115.72;;;9.50;44.42
53715;BME280;39608;55.630;37.864;2023-05-03T23:50:28;100126.03;;;9.48;43.91
53715;BME280;39608;55.630;37.864;2023-05-03T23:55:30;100119.00;;;9.41;44.12
